sensor_id;sensor_type;location;lat;lon;timestamp;temperature;humidity
29363;DHT22;16349;53.672;10.014;2023-03-01T00:00:13;-0.30;99.90
29363;DHT22;16349;53.672;10.014;2023-03-01T00:02:41;-0.30;99.90
29363;DHT22;16349;53.672;10.014;2023-03-01T00:05:08;-0.30;99.90
29363;DHT22;16349;53.672;10.014;2023-03-01T00:07:35;-0.30;99.90
29363;DHT22;16349;53.672;10.014;2023-03-01T00:10:02;-0.40;99.90
29363;DHT22;16349;53.672;10.014;2023-03-01T00:12:30;-0.30;99.90
29363;DHT22;16349;53.672;10.014;2023-03-01T00:14:57;-0.30;99.90
29363;DHT22;16349;53.672;10.014;2023-03-01T00:17:24;-0.30;99.90
29363;DHT22;16349;53.672;10.014;2023-03-01T00:19:53;-0.30;99.90
29363;DHT22;16349;53.672;10.014;2023-03-01T00:22:20;-0.40;99.90
29363;DHT22;16349;53.672;10.014;2023-03-01T00:24:46;-0.40;99.90
29363;DHT22;16349;53.672;10.014;2023-03-01T00:27:13;-0.40;99.90
29363;DHT22;16349;53.672;10.014;2023-03-01T00:29:39;-0.40;99.90
29363;DHT22;16349;53.672;10.014;2023-03-01T00:32:06;-0.50;99.90
29363;DHT22;16349;53.672;10.014;2023-03-01T00:34:33;-0.50;99.90
29363;DHT22;16349;53.672;10.014;2023-03-01T00:37:01;-0.40;99.90
29363;DHT22;16349;53.672;10.014;2023-03-01T00:39:31;-0.50;99.90
29363;DHT22;16349;53.672;10.014;2023-03-01T00:41:58;-0.50;99.90
29363;DHT22;16349;53.672;10.014;2023-03-01T00:44:25;-0.50;99.90
29363;DHT22;16349;53.672;10.014;2023-03-01T00:46:52;-0.50;99.90
29363;DHT22;16349;53.672;10.014;2023-03-01T00:49:19;-0.40;99.90
29363;DHT22;16349;53.672;10.014;2023-03-01T00:51:46;-0.50;99.90
29363;DHT22;16349;53.672;10.014;2023-03-01T00:54:14;-0.50;99.90
29363;DHT22;16349;53.672;10.014;2023-03-01T00:56:41;-0.50;99.90
29363;DHT22;16349;53.672;10.014;2023-03-01T00:59:07;-0.50;99.90
29363;DHT22;16349;53.672;10.014;2023-03-01T01:01:34;-0.40;99.90
29363;DHT22;16349;53.672;10.014;2023-03-01T01:04:04;-0.40;99.90
29363;DHT22;16349;53.672;10.014;2023-03-01T01:06:32;-0.40;99.90
29363;DHT22;16349;53.672;10.014;2023-03-01T01:09:00;-0.50;99.90
29363;DHT22;16349;53.672;10.014;2023-03-01T01:11:29;-0.50;99.90
29363;DHT22;16349;53.672;10.014;2023-03-01T01:13:57;-0.60;99.90
29363;DHT22;16349;53.672;10.014;2023-03-01T01:16:25;-0.60;99.90
29363;DHT22;16349;53.672;10.014;2023-03-01T01:18:53;-0.60;99.90
29363;DHT22;16349;53.672;10.014;2023-03-01T01:21:21;-0.60;99.90
29363;DHT22;16349;53.672;10.014;2023-03-01T01:23:51;-0.70;99.90
29363;DHT22;16349;53.672;10.014;2023-03-01T01:26:21;-0.70;99.90
29363;DHT22;16349;53.672;10.014;2023-03-01T01:28:50;-0.60;99.90
29363;DHT22;16349;53.672;10.014;2023-03-01T01:31:18;-0.60;99.90
29363;DHT22;16349;53.672;10.014;2023-03-01T01:33:45;-0.60;99.90
29363;DHT22;16349;53.672;10.014;2023-03-01T01:36:12;-0.70;99.90
29363;DHT22;16349;53.672;10.014;2023-03-01T01:38:40;-0.70;99.90
29363;DHT22;16349;53.672;10.014;2023-03-01T01:41:09;-0.70;99.90
29363;DHT22;16349;53.672;10.014;2023-03-01T01:43:39;-0.70;99.90
29363;DHT22;16349;53.672;10.014;2023-03-01T01:46:17;-0.70;99.90
29363;DHT22;16349;53.672;10.014;2023-03-01T01:48:50;-0.70;99.90
29363;DHT22;16349;53.672;10.014;2023-03-01T01:51:23;-0.70;99.90
29363;DHT22;16349;53.672;10.014;2023-03-01T01:53:53;-0.70;99.90
29363;DHT22;16349;53.672;10.014;2023-03-01T01:56:22;-0.70;99.90
29363;DHT22;16349;53.672;10.014;2023-03-01T01:58:50;-0.70;99.90
29363;DHT22;16349;53.672;10.014;2023-03-01T02:01:18;-0.70;99.90
29363;DHT22;16349;53.672;10.014;2023-03-01T02:03:46;-0.70;99.90
29363;DHT22;16349;53.672;10.014;2023-03-01T02:06:19;-0.70;99.90
29363;DHT22;16349;53.672;10.014;2023-03-01T02:08:49;-0.80;99.90
29363;DHT22;16349;53.672;10.014;2023-03-01T02:11:18;-0.90;99.90
29363;DHT22;16349;53.672;10.014;2023-03-01T02:13:47;-0.90;99.90
29363;DHT22;16349;53.672;10.014;2023-03-01T02:16:17;-0.80;99.90
29363;DHT22;16349;53.672;10.014;2023-03-01T02:18:44;-0.80;99.90
29363;DHT22;16349;53.672;10.014;2023-03-01T02:21:27;-0.80;99.90
29363;DHT22;16349;53.672;10.014;2023-03-01T02:23:56;-0.80;99.90
29363;DHT22;16349;53.672;10.014;2023-03-01T02:26:30;-0.90;99.90
29363;DHT22;16349;53.672;10.014;2023-03-01T02:29:01;-0.90;99.90
29363;DHT22;16349;53.672;10.014;2023-03-01T02:31:28;-1.00;99.90
29363;DHT22;16349;53.672;10.014;2023-03-01T02:34:13;-1.00;99.90
29363;DHT22;16349;53.672;10.014;2023-03-01T02:36:44;-1.00;99.90
29363;DHT22;16349;53.672;10.014;2023-03-01T02:39:17;-1.00;99.90
29363;DHT22;16349;53.672;10.014;2023-03-01T02:41:47;-1.00;99.90
29363;DHT22;16349;53.672;10.014;2023-03-01T02:44:16;-1.00;99.90
29363;DHT22;16349;53.672;10.014;2023-03-01T02:46:44;-1.00;99.90
29363;DHT22;16349;53.672;10.014;2023-03-01T02:49:23;-1.00;99.90
29363;DHT22;16349;53.672;10.014;2023-03-01T02:52:17;-1.00;99.90
29363;DHT22;16349;53.672;10.014;2023-03-01T02:54:48;-1.00;99.90
29363;DHT22;16349;53.672;10.014;2023-03-01T02:57:18;-1.10;99.90
29363;DHT22;16349;53.672;10.014;2023-03-01T02:59:47;-1.10;99.90
29363;DHT22;16349;53.672;10.014;2023-03-01T03:02:20;-1.10;99.90
29363;DHT22;16349;53.672;10.014;2023-03-01T03:05:08;-1.10;99.90
29363;DHT22;16349;53.672;10.014;2023-03-01T03:07:37;-1.10;99.90
29363;DHT22;16349;53.672;10.014;2023-03-01T03:10:06;-1.10;99.90
29363;DHT22;16349;53.672;10.014;2023-03-01T03:12:35;-1.10;99.90
29363;DHT22;16349;53.672;10.014;2023-03-01T03:15:04;-1.10;99.90
29363;DHT22;16349;53.672;10.014;2023-03-01T03:17:34;-1.10;99.90
29363;DHT22;16349;53.672;10.014;2023-03-01T03:20:02;-1.10;99.90
29363;DHT22;16349;53.672;10.014;2023-03-01T03:22:30;-1.10;99.90
29363;DHT22;16349;53.672;10.014;2023-03-01T03:24:56;-1.10;99.90
29363;DHT22;16349;53.672;10.014;2023-03-01T03:27:23;-1.00;99.90
29363;DHT22;16349;53.672;10.014;2023-03-01T03:29:50;-1.00;99.90
29363;DHT22;16349;53.672;10.014;2023-03-01T03:32:18;-1.00;99.90
29363;DHT22;16349;53.672;10.014;2023-03-01T03:34:45;-1.00;99.90
29363;DHT22;16349;53.672;10.014;2023-03-01T03:37:11;-0.90;99.90
29363;DHT22;16349;53.672;10.014;2023-03-01T03:39:52;-0.90;99.90
29363;DHT22;16349;53.672;10.014;2023-03-01T03:42:20;-0.90;99.90
29363;DHT22;16349;53.672;10.014;2023-03-01T03:44:48;-0.90;99.90
29363;DHT22;16349;53.672;10.014;2023-03-01T03:47:15;-0.80;99.90
29363;DHT22;16349;53.672;10.014;2023-03-01T03:49:43;-0.80;99.90
29363;DHT22;16349;53.672;10.014;2023-03-01T03:52:10;-0.80;99.90
29363;DHT22;16349;53.672;10.014;2023-03-01T03:54:39;-0.70;99.90
29363;DHT22;16349;53.672;10.014;2023-03-01T03:57:06;-0.70;99.90
29363;DHT22;16349;53.672;10.014;2023-03-01T03:59:33;-0.80;99.90
29363;DHT22;16349;53.672;10.014;2023-03-01T04:02:01;-0.80;99.90
29363;DHT22;16349;53.672;10.014;2023-03-01T04:04:28;-0.80;99.90
29363;DHT22;16349;53.672;10.014;2023-03-01T04:06:55;-0.70;99.90
29363;DHT22;16349;53.672;10.014;2023-03-01T04:09:22;-0.70;99.90
29363;DHT22;16349;53.672;10.014;2023-03-01T04:11:49;-0.70;99.90
29363;DHT22;16349;53.672;10.014;2023-03-01T04:14:16;-0.70;99.90
29363;DHT22;16349;53.672;10.014;2023-03-01T04:16:42;-0.80;99.90
29363;DHT22;16349;53.672;10.014;2023-03-01T04:19:09;-0.70;99.90
29363;DHT22;16349;53.672;10.014;2023-03-01T04:21:36;-0.70;99.90
29363;DHT22;16349;53.672;10.014;2023-03-01T04:24:05;-0.70;99.90
29363;DHT22;16349;53.672;10.014;2023-03-01T04:26:32;-0.70;99.90
29363;DHT22;16349;53.672;10.014;2023-03-01T04:28:58;-0.60;99.90
29363;DHT22;16349;53.672;10.014;2023-03-01T04:31:25;-0.60;99.90
29363;DHT22;16349;53.672;10.014;2023-03-01T04:33:54;-0.60;99.90
29363;DHT22;16349;53.672;10.014;2023-03-01T04:36:23;-0.60;99.90
29363;DHT22;16349;53.672;10.014;2023-03-01T04:38:51;-0.50;99.90
29363;DHT22;16349;53.672;10.014;2023-03-01T04:41:22;-0.50;99.90
29363;DHT22;16349;53.672;10.014;2023-03-01T04:43:49;-0.40;99.90
29363;DHT22;16349;53.672;10.014;2023-03-01T04:46:18;-0.40;99.90
29363;DHT22;16349;53.672;10.014;2023-03-01T04:48:45;-0.40;99.90
29363;DHT22;16349;53.672;10.014;2023-03-01T04:51:13;-0.30;99.90
29363;DHT22;16349;53.672;10.014;2023-03-01T04:53:41;-0.30;99.90
29363;DHT22;16349;53.672;10.014;2023-03-01T04:56:11;-0.20;99.90
29363;DHT22;16349;53.672;10.014;2023-03-01T04:58:40;-0.20;99.90
29363;DHT22;16349;53.672;10.014;2023-03-01T05:01:09;-0.10;99.90
29363;DHT22;16349;53.672;10.014;2023-03-01T05:03:41;-0.10;99.90
29363;DHT22;16349;53.672;10.014;2023-03-01T05:06:08;0.00;99.90
29363;DHT22;16349;53.672;10.014;2023-03-01T05:08:35;0.00;99.90
29363;DHT22;16349;53.672;10.014;2023-03-01T05:11:03;0.00;99.90
29363;DHT22;16349;53.672;10.014;2023-03-01T05:13:30;0.00;99.90
29363;DHT22;16349;53.672;10.014;2023-03-01T05:16:00;0.10;99.90
29363;DHT22;16349;53.672;10.014;2023-03-01T05:18:28;0.10;99.90
29363;DHT22;16349;53.672;10.014;2023-03-01T05:21:02;0.10;99.90
29363;DHT22;16349;53.672;10.014;2023-03-01T05:23:30;0.10;99.90
29363;DHT22;16349;53.672;10.014;2023-03-01T05:25:57;0.20;99.90
29363;DHT22;16349;53.672;10.014;2023-03-01T05:28:25;0.20;99.90
29363;DHT22;16349;53.672;10.014;2023-03-01T05:30:53;0.20;99.90
29363;DHT22;16349;53.672;10.014;2023-03-01T05:33:21;0.20;99.90
29363;DHT22;16349;53.672;10.014;2023-03-01T05:35:49;0.30;99.90
29363;DHT22;16349;53.672;10.014;2023-03-01T05:38:17;0.30;99.90
29363;DHT22;16349;53.672;10.014;2023-03-01T05:40:46;0.30;99.90
29363;DHT22;16349;53.672;10.014;2023-03-01T05:43:16;0.30;99.90
29363;DHT22;16349;53.672;10.014;2023-03-01T05:45:43;0.30;99.90
29363;DHT22;16349;53.672;10.014;2023-03-01T05:48:11;0.30;99.90
29363;DHT22;16349;53.672;10.014;2023-03-01T05:50:41;0.30;99.90
29363;DHT22;16349;53.672;10.014;2023-03-01T05:53:30;0.30;99.90
29363;DHT22;16349;53.672;10.014;2023-03-01T05:55:57;0.30;99.90
29363;DHT22;16349;53.672;10.014;2023-03-01T05:58:24;0.30;99.90
29363;DHT22;16349;53.672;10.014;2023-03-01T06:00:51;0.30;99.90
29363;DHT22;16349;53.672;10.014;2023-03-01T06:03:38;0.20;99.90
29363;DHT22;16349;53.672;10.014;2023-03-01T06:06:07;0.20;99.90
29363;DHT22;16349;53.672;10.014;2023-03-01T06:08:33;0.20;99.90
29363;DHT22;16349;53.672;10.014;2023-03-01T06:11:00;0.10;99.90
29363;DHT22;16349;53.672;10.014;2023-03-01T06:13:27;0.10;99.90
29363;DHT22;16349;53.672;10.014;2023-03-01T06:15:55;0.10;99.90
29363;DHT22;16349;53.672;10.014;2023-03-01T06:18:21;0.10;99.90
29363;DHT22;16349;53.672;10.014;2023-03-01T06:20:52;0.10;99.90
29363;DHT22;16349;53.672;10.014;2023-03-01T06:23:21;0.10;99.90
29363;DHT22;16349;53.672;10.014;2023-03-01T06:25:47;0.10;99.90
29363;DHT22;16349;53.672;10.014;2023-03-01T06:28:14;0.20;99.90
29363;DHT22;16349;53.672;10.014;2023-03-01T06:30:44;0.20;99.90
29363;DHT22;16349;53.672;10.014;2023-03-01T06:33:11;0.20;99.90
29363;DHT22;16349;53.672;10.014;2023-03-01T06:35:39;0.20;99.90
29363;DHT22;16349;53.672;10.014;2023-03-01T06:38:07;0.20;99.90
29363;DHT22;16349;53.672;10.014;2023-03-01T06:40:35;0.20;99.90
29363;DHT22;16349;53.672;10.014;2023-03-01T06:43:03;0.30;99.90
29363;DHT22;16349;53.672;10.014;2023-03-01T06:45:29;0.30;99.90
29363;DHT22;16349;53.672;10.014;2023-03-01T06:48:02;0.40;99.90
29363;DHT22;16349;53.672;10.014;2023-03-01T06:50:30;0.50;99.90
29363;DHT22;16349;53.672;10.014;2023-03-01T06:52:56;0.50;99.90
29363;DHT22;16349;53.672;10.014;2023-03-01T06:55:24;0.60;99.90
29363;DHT22;16349;53.672;10.014;2023-03-01T06:57:55;0.60;99.90
29363;DHT22;16349;53.672;10.014;2023-03-01T07:00:23;0.70;99.90
29363;DHT22;16349;53.672;10.014;2023-03-01T07:02:52;0.70;99.90
29363;DHT22;16349;53.672;10.014;2023-03-01T07:05:19;0.70;99.90
29363;DHT22;16349;53.672;10.014;2023-03-01T07:07:48;0.80;99.90
29363;DHT22;16349;53.672;10.014;2023-03-01T07:10:15;0.90;99.90
29363;DHT22;16349;53.672;10.014;2023-03-01T07:12:43;0.90;99.90
29363;DHT22;16349;53.672;10.014;2023-03-01T07:15:35;1.00;99.90
29363;DHT22;16349;53.672;10.014;2023-03-01T07:18:03;1.10;99.90
29363;DHT22;16349;53.672;10.014;2023-03-01T07:20:31;1.20;99.90
29363;DHT22;16349;53.672;10.014;2023-03-01T07:22:57;1.20;99.90
29363;DHT22;16349;53.672;10.014;2023-03-01T07:25:24;1.30;99.90
29363;DHT22;16349;53.672;10.014;2023-03-01T07:27:52;1.30;99.90
29363;DHT22;16349;53.672;10.014;2023-03-01T07:30:20;1.30;99.90
29363;DHT22;16349;53.672;10.014;2023-03-01T07:32:48;1.40;99.90
29363;DHT22;16349;53.672;10.014;2023-03-01T07:35:15;1.40;99.90
29363;DHT22;16349;53.672;10.014;2023-03-01T07:37:42;1.40;99.90
29363;DHT22;16349;53.672;10.014;2023-03-01T07:40:10;1.50;99.90
29363;DHT22;16349;53.672;10.014;2023-03-01T07:42:39;1.60;99.90
29363;DHT22;16349;53.672;10.014;2023-03-01T07:45:07;1.60;99.90
29363;DHT22;16349;53.672;10.014;2023-03-01T07:47:35;1.60;99.90
29363;DHT22;16349;53.672;10.014;2023-03-01T07:50:04;1.70;99.90
29363;DHT22;16349;53.672;10.014;2023-03-01T07:52:51;1.70;99.90
29363;DHT22;16349;53.672;10.014;2023-03-01T07:55:18;1.80;99.90
29363;DHT22;16349;53.672;10.014;2023-03-01T07:57:46;1.90;99.90
29363;DHT22;16349;53.672;10.014;2023-03-01T08:00:13;1.90;99.90
29363;DHT22;16349;53.672;10.014;2023-03-01T08:02:41;1.90;99.90
29363;DHT22;16349;53.672;10.014;2023-03-01T08:05:09;2.00;99.90
29363;DHT22;16349;53.672;10.014;2023-03-01T08:07:38;1.90;99.90
29363;DHT22;16349;53.672;10.014;2023-03-01T08:10:06;1.90;99.90
29363;DHT22;16349;53.672;10.014;2023-03-01T08:12:33;1.90;99.90
29363;DHT22;16349;53.672;10.014;2023-03-01T08:14:59;2.00;99.90
29363;DHT22;16349;53.672;10.014;2023-03-01T08:17:26;2.00;99.90
29363;DHT22;16349;53.672;10.014;2023-03-01T08:20:17;2.10;99.90
29363;DHT22;16349;53.672;10.014;2023-03-01T08:22:44;2.10;99.90
29363;DHT22;16349;53.672;10.014;2023-03-01T08:25:11;2.10;99.90
29363;DHT22;16349;53.672;10.014;2023-03-01T08:27:58;2.20;99.90
29363;DHT22;16349;53.672;10.014;2023-03-01T08:30:25;2.20;99.90
29363;DHT22;16349;53.672;10.014;2023-03-01T08:32:52;2.40;99.90
29363;DHT22;16349;53.672;10.014;2023-03-01T08:35:21;2.50;99.90
29363;DHT22;16349;53.672;10.014;2023-03-01T08:37:48;2.50;99.90
29363;DHT22;16349;53.672;10.014;2023-03-01T08:40:15;2.50;99.90
29363;DHT22;16349;53.672;10.014;2023-03-01T08:42:42;2.60;99.90
29363;DHT22;16349;53.672;10.014;2023-03-01T08:45:10;2.60;99.90
29363;DHT22;16349;53.672;10.014;2023-03-01T08:47:38;2.60;99.90
29363;DHT22;16349;53.672;10.014;2023-03-01T08:50:06;2.70;99.90
29363;DHT22;16349;53.672;10.014;2023-03-01T08:52:36;2.70;99.90
29363;DHT22;16349;53.672;10.014;2023-03-01T08:55:03;2.70;99.90
29363;DHT22;16349;53.672;10.014;2023-03-01T08:57:30;2.70;99.90
29363;DHT22;16349;53.672;10.014;2023-03-01T08:59:57;2.80;99.90
29363;DHT22;16349;53.672;10.014;2023-03-01T09:02:23;2.80;99.90
29363;DHT22;16349;53.672;10.014;2023-03-01T09:04:50;2.90;99.90
29363;DHT22;16349;53.672;10.014;2023-03-01T09:07:17;2.90;99.90
29363;DHT22;16349;53.672;10.014;2023-03-01T09:09:46;2.90;99.90
29363;DHT22;16349;53.672;10.014;2023-03-01T09:12:13;3.10;99.90
29363;DHT22;16349;53.672;10.014;2023-03-01T09:14:40;3.10;99.90
29363;DHT22;16349;53.672;10.014;2023-03-01T09:17:07;3.20;99.90
29363;DHT22;16349;53.672;10.014;2023-03-01T09:19:35;3.30;99.90
29363;DHT22;16349;53.672;10.014;2023-03-01T09:22:03;3.40;99.90
29363;DHT22;16349;53.672;10.014;2023-03-01T09:24:30;3.40;99.90
29363;DHT22;16349;53.672;10.014;2023-03-01T09:27:20;3.50;99.90
29363;DHT22;16349;53.672;10.014;2023-03-01T09:29:47;3.60;99.90
29363;DHT22;16349;53.672;10.014;2023-03-01T09:32:14;3.60;99.90
29363;DHT22;16349;53.672;10.014;2023-03-01T09:34:41;3.60;99.90
29363;DHT22;16349;53.672;10.014;2023-03-01T09:37:48;3.60;99.90
29363;DHT22;16349;53.672;10.014;2023-03-01T09:40:18;3.60;99.90
29363;DHT22;16349;53.672;10.014;2023-03-01T09:43:18;3.70;99.90
29363;DHT22;16349;53.672;10.014;2023-03-01T09:45:48;3.80;99.90
29363;DHT22;16349;53.672;10.014;2023-03-01T09:48:21;3.80;99.90
29363;DHT22;16349;53.672;10.014;2023-03-01T09:50:52;3.90;99.90
29363;DHT22;16349;53.672;10.014;2023-03-01T09:53:22;4.00;99.90
29363;DHT22;16349;53.672;10.014;2023-03-01T09:55:54;4.00;99.90
29363;DHT22;16349;53.672;10.014;2023-03-01T09:58:37;4.10;99.90
29363;DHT22;16349;53.672;10.014;2023-03-01T10:01:29;4.20;99.90
29363;DHT22;16349;53.672;10.014;2023-03-01T10:04:24;4.20;99.90
29363;DHT22;16349;53.672;10.014;2023-03-01T10:07:03;4.40;99.90
29363;DHT22;16349;53.672;10.014;2023-03-01T10:09:34;4.40;99.90
29363;DHT22;16349;53.672;10.014;2023-03-01T10:12:02;4.50;99.90
29363;DHT22;16349;53.672;10.014;2023-03-01T10:14:59;4.60;99.90
29363;DHT22;16349;53.672;10.014;2023-03-01T10:17:34;4.60;99.90
29363;DHT22;16349;53.672;10.014;2023-03-01T10:20:16;4.60;99.90
29363;DHT22;16349;53.672;10.014;2023-03-01T10:22:44;4.70;99.90
29363;DHT22;16349;53.672;10.014;2023-03-01T10:25:34;4.60;99.90
29363;DHT22;16349;53.672;10.014;2023-03-01T10:28:25;4.60;99.90
29363;DHT22;16349;53.672;10.014;2023-03-01T10:30:56;4.70;99.90
29363;DHT22;16349;53.672;10.014;2023-03-01T10:33:27;4.70;99.90
29363;DHT22;16349;53.672;10.014;2023-03-01T10:35:55;4.70;99.90
29363;DHT22;16349;53.672;10.014;2023-03-01T10:38:49;4.70;99.90
29363;DHT22;16349;53.672;10.014;2023-03-01T10:41:51;4.60;99.90
29363;DHT22;16349;53.672;10.014;2023-03-01T10:44:44;4.70;99.90
29363;DHT22;16349;53.672;10.014;2023-03-01T10:47:19;4.70;99.90
29363;DHT22;16349;53.672;10.014;2023-03-01T10:49:55;4.70;99.90
29363;DHT22;16349;53.672;10.014;2023-03-01T10:52:25;4.80;99.90
29363;DHT22;16349;53.672;10.014;2023-03-01T10:54:56;4.70;99.90
29363;DHT22;16349;53.672;10.014;2023-03-01T10:57:38;4.60;99.90
29363;DHT22;16349;53.672;10.014;2023-03-01T11:00:21;4.70;99.90
29363;DHT22;16349;53.672;10.014;2023-03-01T11:03:14;4.70;99.90
29363;DHT22;16349;53.672;10.014;2023-03-01T11:05:56;4.70;99.90
29363;DHT22;16349;53.672;10.014;2023-03-01T11:08:40;4.70;99.90
29363;DHT22;16349;53.672;10.014;2023-03-01T11:11:22;4.80;99.90
29363;DHT22;16349;53.672;10.014;2023-03-01T11:13:53;4.90;99.90
29363;DHT22;16349;53.672;10.014;2023-03-01T11:16:26;5.00;99.90
29363;DHT22;16349;53.672;10.014;2023-03-01T11:19:00;5.00;99.90
29363;DHT22;16349;53.672;10.014;2023-03-01T11:21:28;5.10;99.90
29363;DHT22;16349;53.672;10.014;2023-03-01T11:24:00;5.10;99.90
29363;DHT22;16349;53.672;10.014;2023-03-01T11:26:28;5.20;99.90
29363;DHT22;16349;53.672;10.014;2023-03-01T11:29:02;5.20;99.90
29363;DHT22;16349;53.672;10.014;2023-03-01T11:31:31;5.40;99.90
29363;DHT22;16349;53.672;10.014;2023-03-01T11:34:05;5.50;99.90
29363;DHT22;16349;53.672;10.014;2023-03-01T11:36:35;5.60;99.90
29363;DHT22;16349;53.672;10.014;2023-03-01T11:39:16;5.70;99.90
29363;DHT22;16349;53.672;10.014;2023-03-01T11:41:48;5.70;99.90
29363;DHT22;16349;53.672;10.014;2023-03-01T11:44:21;5.70;99.90
29363;DHT22;16349;53.672;10.014;2023-03-01T11:47:19;5.80;99.90
29363;DHT22;16349;53.672;10.014;2023-03-01T11:49:57;5.90;99.90
29363;DHT22;16349;53.672;10.014;2023-03-01T11:52:33;6.00;99.90
29363;DHT22;16349;53.672;10.014;2023-03-01T11:55:16;5.90;99.90
29363;DHT22;16349;53.672;10.014;2023-03-01T11:57:58;6.00;99.90
29363;DHT22;16349;53.672;10.014;2023-03-01T12:00:53;6.00;99.90
29363;DHT22;16349;53.672;10.014;2023-03-01T12:03:30;6.10;99.90
29363;DHT22;16349;53.672;10.014;2023-03-01T12:06:12;6.10;99.90
29363;DHT22;16349;53.672;10.014;2023-03-01T12:09:17;6.20;99.90
29363;DHT22;16349;53.672;10.014;2023-03-01T12:12:02;6.30;99.90
29363;DHT22;16349;53.672;10.014;2023-03-01T12:14:45;6.30;99.90
29363;DHT22;16349;53.672;10.014;2023-03-01T12:17:31;6.50;99.90
29363;DHT22;16349;53.672;10.014;2023-03-01T12:20:09;6.40;99.90
29363;DHT22;16349;53.672;10.014;2023-03-01T12:22:51;6.50;99.90
29363;DHT22;16349;53.672;10.014;2023-03-01T12:25:28;6.40;99.90
29363;DHT22;16349;53.672;10.014;2023-03-01T12:28:09;6.40;99.90
29363;DHT22;16349;53.672;10.014;2023-03-01T12:30:56;6.50;99.90
29363;DHT22;16349;53.672;10.014;2023-03-01T12:33:38;6.50;99.90
29363;DHT22;16349;53.672;10.014;2023-03-01T12:36:27;6.50;99.90
29363;DHT22;16349;53.672;10.014;2023-03-01T12:39:11;6.70;99.90
29363;DHT22;16349;53.672;10.014;2023-03-01T12:41:46;6.70;99.90
29363;DHT22;16349;53.672;10.014;2023-03-01T12:47:27;6.70;99.90
29363;DHT22;16349;53.672;10.014;2023-03-01T12:50:01;6.80;99.90
29363;DHT22;16349;53.672;10.014;2023-03-01T12:52:35;6.80;99.90
29363;DHT22;16349;53.672;10.014;2023-03-01T12:55:15;6.80;99.90
29363;DHT22;16349;53.672;10.014;2023-03-01T12:57:49;6.80;99.90
29363;DHT22;16349;53.672;10.014;2023-03-01T13:00:26;6.90;99.90
29363;DHT22;16349;53.672;10.014;2023-03-01T13:02:58;6.90;99.90
29363;DHT22;16349;53.672;10.014;2023-03-01T13:05:36;6.90;99.90
29363;DHT22;16349;53.672;10.014;2023-03-01T13:08:11;7.00;99.90
29363;DHT22;16349;53.672;10.014;2023-03-01T13:10:46;7.00;99.90
29363;DHT22;16349;53.672;10.014;2023-03-01T13:13:20;7.00;99.90
29363;DHT22;16349;53.672;10.014;2023-03-01T13:15:47;7.00;99.90
29363;DHT22;16349;53.672;10.014;2023-03-01T13:18:33;7.00;99.90
29363;DHT22;16349;53.672;10.014;2023-03-01T13:21:02;7.00;99.90
29363;DHT22;16349;53.672;10.014;2023-03-01T13:23:33;7.00;99.90
29363;DHT22;16349;53.672;10.014;2023-03-01T13:26:08;7.10;99.90
29363;DHT22;16349;53.672;10.014;2023-03-01T13:28:46;7.10;99.90
29363;DHT22;16349;53.672;10.014;2023-03-01T13:34:40;7.10;99.90
29363;DHT22;16349;53.672;10.014;2023-03-01T13:37:17;7.10;99.90
29363;DHT22;16349;53.672;10.014;2023-03-01T13:39:45;7.20;99.90
29363;DHT22;16349;53.672;10.014;2023-03-01T13:42:41;7.30;99.90
29363;DHT22;16349;53.672;10.014;2023-03-01T13:45:20;7.40;99.90
29363;DHT22;16349;53.672;10.014;2023-03-01T13:47:52;7.40;99.90
29363;DHT22;16349;53.672;10.014;2023-03-01T13:50:23;7.50;99.90
29363;DHT22;16349;53.672;10.014;2023-03-01T13:52:53;8.60;99.90
29363;DHT22;16349;53.672;10.014;2023-03-01T13:55:27;9.20;99.90
29363;DHT22;16349;53.672;10.014;2023-03-01T13:58:00;9.20;99.90
29363;DHT22;16349;53.672;10.014;2023-03-01T14:00:35;9.00;99.90
29363;DHT22;16349;53.672;10.014;2023-03-01T14:03:11;9.10;99.90
29363;DHT22;16349;53.672;10.014;2023-03-01T14:05:38;9.10;99.90
29363;DHT22;16349;53.672;10.014;2023-03-01T14:08:19;9.20;99.90
29363;DHT22;16349;53.672;10.014;2023-03-01T14:11:15;9.20;99.90
29363;DHT22;16349;53.672;10.014;2023-03-01T14:14:09;9.30;99.90
29363;DHT22;16349;53.672;10.014;2023-03-01T14:16:46;9.30;99.90
29363;DHT22;16349;53.672;10.014;2023-03-01T14:19:18;9.20;99.90
29363;DHT22;16349;53.672;10.014;2023-03-01T14:21:46;9.40;99.90
29363;DHT22;16349;53.672;10.014;2023-03-01T14:24:18;9.50;99.90
29363;DHT22;16349;53.672;10.014;2023-03-01T14:26:47;9.70;99.90
29363;DHT22;16349;53.672;10.014;2023-03-01T14:29:34;9.80;99.90
29363;DHT22;16349;53.672;10.014;2023-03-01T14:32:09;9.90;99.90
29363;DHT22;16349;53.672;10.014;2023-03-01T14:34:42;10.20;99.90
29363;DHT22;16349;53.672;10.014;2023-03-01T14:37:10;10.20;99.90
29363;DHT22;16349;53.672;10.014;2023-03-01T14:39:37;10.30;99.90
29363;DHT22;16349;53.672;10.014;2023-03-01T14:42:04;10.40;99.90
29363;DHT22;16349;53.672;10.014;2023-03-01T14:44:33;10.70;99.90
29363;DHT22;16349;53.672;10.014;2023-03-01T14:47:04;10.90;99.90
29363;DHT22;16349;53.672;10.014;2023-03-01T14:49:32;10.90;99.90
29363;DHT22;16349;53.672;10.014;2023-03-01T14:52:00;10.80;99.90
29363;DHT22;16349;53.672;10.014;2023-03-01T14:54:39;10.90;99.90
29363;DHT22;16349;53.672;10.014;2023-03-01T14:57:14;10.90;99.90
29363;DHT22;16349;53.672;10.014;2023-03-01T14:59:43;11.00;99.90
29363;DHT22;16349;53.672;10.014;2023-03-01T15:02:14;11.10;99.90
29363;DHT22;16349;53.672;10.014;2023-03-01T15:04:43;11.40;99.90
29363;DHT22;16349;53.672;10.014;2023-03-01T15:07:12;11.30;99.90
29363;DHT22;16349;53.672;10.014;2023-03-01T15:09:40;11.30;99.90
29363;DHT22;16349;53.672;10.014;2023-03-01T15:12:36;11.20;99.90
29363;DHT22;16349;53.672;10.014;2023-03-01T15:15:21;11.40;99.80
29363;DHT22;16349;53.672;10.014;2023-03-01T15:17:52;12.00;98.50
29363;DHT22;16349;53.672;10.014;2023-03-01T15:20:24;11.70;99.80
29363;DHT22;16349;53.672;10.014;2023-03-01T15:22:53;11.30;99.90
29363;DHT22;16349;53.672;10.014;2023-03-01T15:25:23;11.10;99.90
29363;DHT22;16349;53.672;10.014;2023-03-01T15:27:52;11.30;99.90
29363;DHT22;16349;53.672;10.014;2023-03-01T15:30:22;11.30;99.90
29363;DHT22;16349;53.672;10.014;2023-03-01T15:33:18;11.10;99.90
29363;DHT22;16349;53.672;10.014;2023-03-01T15:35:47;11.00;99.90
29363;DHT22;16349;53.672;10.014;2023-03-01T15:38:26;10.80;99.90
29363;DHT22;16349;53.672;10.014;2023-03-01T15:40:54;10.30;99.90
29363;DHT22;16349;53.672;10.014;2023-03-01T15:43:43;9.90;99.90
29363;DHT22;16349;53.672;10.014;2023-03-01T15:46:20;9.40;99.90
29363;DHT22;16349;53.672;10.014;2023-03-01T15:48:50;9.10;99.90
29363;DHT22;16349;53.672;10.014;2023-03-01T15:51:23;8.80;99.90
29363;DHT22;16349;53.672;10.014;2023-03-01T15:53:53;8.60;99.90
29363;DHT22;16349;53.672;10.014;2023-03-01T15:56:20;8.50;99.90
29363;DHT22;16349;53.672;10.014;2023-03-01T15:58:47;8.30;99.90
29363;DHT22;16349;53.672;10.014;2023-03-01T16:01:15;8.20;99.90